createdAt,value
2022-09-24T00:01:40.612Z,151.27
2022-09-24T00:04:11.401Z,150.93
2022-09-24T00:06:41.856Z,151.30
2022-09-24T00:09:11.475Z,151.73
2022-09-24T00:11:39.561Z,151.90
2022-09-24T00:14:08.032Z,151.37
2022-09-24T00:16:36.078Z,151.47
2022-09-24T00:19:05.246Z,151.83
2022-09-24T00:21:34.840Z,151.83
2022-09-24T00:24:04.557Z,152.00
2022-09-24T00:26:51.032Z,151.53
2022-09-24T00:29:21.848Z,151.07
2022-09-24T00:31:50.743Z,150.93
2022-09-24T00:34:19.139Z,150.73
2022-09-24T00:36:47.231Z,151.43
2022-09-24T00:39:15.812Z,151.30
2022-09-24T00:41:47.025Z,151.33
2022-09-24T00:44:48.094Z,151.77
2022-09-24T00:47:20.381Z,151.60
2022-09-24T00:49:50.642Z,151.97
2022-09-24T00:52:19.855Z,151.57
2022-09-24T00:54:48.047Z,151.43
2022-09-24T00:57:17.443Z,151.27
2022-09-24T00:59:45.929Z,151.67
2022-09-24T01:02:14.206Z,151.83
2022-09-24T01:04:42.214Z,151.57
2022-09-24T01:07:10.058Z,151.87
2022-09-24T01:09:37.844Z,151.97
2022-09-24T01:12:15.265Z,152.00
2022-09-24T01:15:02.213Z,152.47
2022-09-24T01:17:37.925Z,151.63
2022-09-24T01:20:39.669Z,151.73
2022-09-24T01:23:47.747Z,151.77
2022-09-24T01:26:30.656Z,151.37
2022-09-24T01:29:10.593Z,152.40
2022-09-24T01:31:44.299Z,151.70
2022-09-24T01:34:15.531Z,152.20
2022-09-24T01:36:45.608Z,152.10
2022-09-24T01:39:15.044Z,151.97
2022-09-24T01:41:44.362Z,152.40
2022-09-24T01:44:12.815Z,151.70
2022-09-24T01:46:42.868Z,152.40
2022-09-24T01:49:10.740Z,152.03
2022-09-24T01:51:44.330Z,151.50
2022-09-24T01:54:19.437Z,152.07
2022-09-24T01:56:52.052Z,152.27
2022-09-24T01:59:28.038Z,151.53
2022-09-24T02:02:04.172Z,150.90
2022-09-24T02:04:37.825Z,151.17
2022-09-24T02:07:13.359Z,151.03
2022-09-24T02:09:43.867Z,151.03
2022-09-24T02:12:16.666Z,151.00
2022-09-24T02:14:48.986Z,151.90
2022-09-24T02:17:18.325Z,151.07
2022-09-24T02:19:47.338Z,151.50
2022-09-24T02:22:15.445Z,152.33
2022-09-24T02:24:49.454Z,152.37
2022-09-24T02:27:18.204Z,152.13
2022-09-24T02:29:47.221Z,152.40
2022-09-24T02:32:19.998Z,151.70
2022-09-24T02:34:51.663Z,151.20
2022-09-24T02:37:20.219Z,151.67
2022-09-24T02:39:48.172Z,151.23
2022-09-24T02:42:17.268Z,150.93
2022-09-24T02:44:45.089Z,151.07
2022-09-24T02:47:12.866Z,151.97
2022-09-24T02:49:42.015Z,151.67
2022-09-24T02:52:10.214Z,151.47
2022-09-24T02:54:38.224Z,151.53
2022-09-24T02:57:06.095Z,151.40
2022-09-24T02:59:33.904Z,151.27
2022-09-24T03:02:01.904Z,151.33
2022-09-24T03:04:30.674Z,151.03
2022-09-24T03:07:00.169Z,151.30
2022-09-24T03:09:27.966Z,152.40
2022-09-24T03:12:00.786Z,151.47
2022-09-24T03:14:28.737Z,152.23
2022-09-24T03:16:56.469Z,151.23
2022-09-24T03:19:24.259Z,151.70
2022-09-24T03:21:52.037Z,152.33
2022-09-24T03:24:21.319Z,151.70
2022-09-24T03:26:49.116Z,150.77
2022-09-24T03:29:16.840Z,151.03
2022-09-24T03:31:43.888Z,151.03
2022-09-24T03:34:11.807Z,151.13
2022-09-24T03:36:41.453Z,152.03
2022-09-24T03:39:09.694Z,151.13
2022-09-24T03:41:38.750Z,151.10
2022-09-24T03:44:06.803Z,150.63
2022-09-24T03:46:34.720Z,150.70
2022-09-24T03:49:02.488Z,150.50
2022-09-24T03:51:30.246Z,150.83
2022-09-24T03:53:58.032Z,150.03
2022-09-24T03:56:25.882Z,150.50
2022-09-24T03:58:55.722Z,150.07
2022-09-24T04:01:23.552Z,150.60
2022-09-24T04:03:51.693Z,150.63
2022-09-24T04:06:24.898Z,151.30
2022-09-24T04:08:53.932Z,150.93
2022-09-24T04:11:21.783Z,150.07
2022-09-24T04:13:49.689Z,150.83
2022-09-24T04:16:19.123Z,151.07
2022-09-24T04:18:48.638Z,149.80
2022-09-24T04:21:16.409Z,151.00
2022-09-24T04:23:44.197Z,150.70
2022-09-24T04:26:12.438Z,151.30
2022-09-24T04:28:40.269Z,150.97
2022-09-24T04:31:08.098Z,150.80
2022-09-24T04:33:37.291Z,150.63
2022-09-24T04:36:05.183Z,150.80
2022-09-24T04:38:32.900Z,150.20
2022-09-24T04:41:06.586Z,150.57
2022-09-24T04:43:34.684Z,151.17
2022-09-24T04:46:02.766Z,150.97
2022-09-24T04:48:30.751Z,150.13
2022-09-24T04:50:59.883Z,150.13
2022-09-24T04:53:28.229Z,150.73
2022-09-24T04:55:55.960Z,150.60
2022-09-24T04:58:23.726Z,150.57
2022-09-24T05:00:51.524Z,149.70
2022-09-24T05:03:21.111Z,150.13
2022-09-24T05:05:50.003Z,150.57
2022-09-24T05:08:19.225Z,150.47
2022-09-24T05:10:47.019Z,150.47
2022-09-24T05:13:14.943Z,150.17
2022-09-24T05:15:43.485Z,150.07
2022-09-24T05:18:11.325Z,151.00
2022-09-24T05:20:39.121Z,150.33
2022-09-24T05:23:07.040Z,150.67
2022-09-24T05:25:57.019Z,150.60
2022-09-24T05:28:23.901Z,150.53
2022-09-24T05:30:51.858Z,150.73
2022-09-24T05:33:20.154Z,149.80
2022-09-24T05:35:54.608Z,150.60
2022-09-24T05:38:22.388Z,150.87
2022-09-24T05:40:51.789Z,151.13
2022-09-24T05:43:20.219Z,150.47
2022-09-24T05:45:48.943Z,150.10
2022-09-24T05:48:16.813Z,151.00
2022-09-24T05:50:44.525Z,149.70
2022-09-24T05:53:12.788Z,150.73
2022-09-24T05:55:40.565Z,150.17
2022-09-24T05:58:11.764Z,150.70
2022-09-24T06:00:39.567Z,150.53
2022-09-24T06:03:11.688Z,149.43
2022-09-24T06:05:39.920Z,149.40
2022-09-24T06:08:08.535Z,149.20
2022-09-24T06:10:37.389Z,148.67
2022-09-24T06:13:05.219Z,149.20
2022-09-24T06:15:34.920Z,148.07
2022-09-24T06:18:02.853Z,148.77
2022-09-24T06:20:30.586Z,148.67
2022-09-24T06:22:58.803Z,148.93
2022-09-24T06:25:27.149Z,148.60
2022-09-24T06:28:00.574Z,148.30
2022-09-24T06:30:29.943Z,148.37
2022-09-24T06:33:02.846Z,147.33
2022-09-24T06:35:30.608Z,149.40
2022-09-24T06:37:58.435Z,149.17
2022-09-24T06:40:27.498Z,148.63
2022-09-24T06:42:56.805Z,148.40
2022-09-24T06:45:25.166Z,148.73
2022-09-24T06:47:54.247Z,148.07
2022-09-24T06:50:24.675Z,148.47
2022-09-24T06:52:52.533Z,148.63
2022-09-24T06:55:20.563Z,148.17
2022-09-24T06:57:48.425Z,148.33
2022-09-24T07:00:17.185Z,148.57
2022-09-24T07:02:44.999Z,149.27
2022-09-24T07:05:12.788Z,149.47
2022-09-24T07:07:41.878Z,151.27
2022-09-24T07:10:10.446Z,151.87
2022-09-24T07:12:38.277Z,152.57
2022-09-24T07:15:07.206Z,151.40
2022-09-24T07:17:35.057Z,152.77
2022-09-24T07:20:03.100Z,153.07
2022-09-24T07:22:31.021Z,152.30
2022-09-24T07:25:00.145Z,152.67
2022-09-24T07:27:27.961Z,152.60
2022-09-24T07:29:55.864Z,153.27
2022-09-24T07:32:28.988Z,153.97
2022-09-24T07:34:57.623Z,153.43
2022-09-24T07:37:25.440Z,153.50
2022-09-24T07:39:53.278Z,153.30
2022-09-24T07:42:22.360Z,153.33
2022-09-24T07:44:50.477Z,153.67
2022-09-24T07:47:18.746Z,152.90
2022-09-24T07:49:46.486Z,152.93
2022-09-24T07:52:14.225Z,153.40
2022-09-24T07:54:42.052Z,153.53
2022-09-24T07:57:13.481Z,153.53
2022-09-24T07:59:44.682Z,153.83
2022-09-24T08:02:17.642Z,154.03
2022-09-24T08:04:45.660Z,153.83
2022-09-24T08:07:14.624Z,153.70
2022-09-24T08:09:42.440Z,153.90
2022-09-24T08:12:10.962Z,154.53
2022-09-24T08:14:38.772Z,153.70
2022-09-24T08:17:07.918Z,154.03
2022-09-24T08:19:35.647Z,153.93
2022-09-24T08:22:05.189Z,154.23
2022-09-24T08:24:33.021Z,154.27
2022-09-24T08:27:00.925Z,154.70
2022-09-24T08:29:28.756Z,154.50
2022-09-24T08:31:56.480Z,154.97
2022-09-24T08:34:25.653Z,154.50
2022-09-24T08:36:53.551Z,154.60
2022-09-24T08:39:21.275Z,154.43
2022-09-24T08:41:55.944Z,154.53
2022-09-24T08:44:47.787Z,154.87
2022-09-24T08:47:24.484Z,154.97
2022-09-24T08:50:09.943Z,154.67
2022-09-24T08:52:46.028Z,154.93
2022-09-24T08:55:21.408Z,155.23
2022-09-24T08:57:58.774Z,154.07
2022-09-24T09:00:29.161Z,155.00
2022-09-24T09:03:01.705Z,155.07
2022-09-24T09:05:50.340Z,155.07
2022-09-24T09:08:50.614Z,154.83
2022-09-24T09:11:21.741Z,155.93
2022-09-24T09:13:55.938Z,155.37
2022-09-24T09:16:28.226Z,155.03
2022-09-24T09:19:01.897Z,155.00
2022-09-24T09:21:39.666Z,155.57
2022-09-24T09:24:16.179Z,156.53
2022-09-24T09:26:47.475Z,155.73
2022-09-24T09:29:15.593Z,155.57
2022-09-24T09:31:52.525Z,155.40
2022-09-24T09:34:45.185Z,156.03
2022-09-24T09:37:27.021Z,156.37
2022-09-24T09:40:03.826Z,155.30
2022-09-24T09:42:34.266Z,155.73
2022-09-24T09:45:03.687Z,155.20
2022-09-24T09:47:41.231Z,155.73
2022-09-24T09:50:20.562Z,155.80
2022-09-24T09:52:49.877Z,156.63
2022-09-24T09:55:26.276Z,156.20
2022-09-24T09:57:55.152Z,155.87
2022-09-24T10:00:35.188Z,156.07
2022-09-24T10:03:03.374Z,156.07
2022-09-24T10:05:31.845Z,156.80
2022-09-24T10:08:00.986Z,156.30
2022-09-24T10:10:30.082Z,157.13
2022-09-24T10:13:09.024Z,156.83
2022-09-24T10:15:49.860Z,156.60
2022-09-24T10:18:18.835Z,156.30
2022-09-24T10:20:49.441Z,157.53
2022-09-24T10:23:23.082Z,156.67
2022-09-24T10:25:53.218Z,156.87
2022-09-24T10:28:38.901Z,156.97
2022-09-24T10:31:12.723Z,157.37
2022-09-24T10:33:43.181Z,157.17
2022-09-24T10:36:16.892Z,156.97
2022-09-24T10:38:46.020Z,156.33
2022-09-24T10:41:23.788Z,156.40
2022-09-24T10:43:52.721Z,157.23
2022-09-24T10:46:54.469Z,157.03
2022-09-24T10:49:35.238Z,157.57
2022-09-24T10:52:12.679Z,157.17
2022-09-24T10:54:54.142Z,157.30
2022-09-24T10:57:29.874Z,157.17
2022-09-24T11:00:09.267Z,157.17
2022-09-24T11:03:04.794Z,157.33
2022-09-24T11:05:44.861Z,156.77
2022-09-24T11:08:21.425Z,157.17
2022-09-24T11:11:11.157Z,156.67
2022-09-24T11:13:50.438Z,156.70
2022-09-24T11:16:48.655Z,156.77
2022-09-24T11:19:32.821Z,156.67
2022-09-24T11:22:12.406Z,156.53
2022-09-24T11:25:11.014Z,157.17
2022-09-24T11:27:50.699Z,156.60
2022-09-24T11:30:21.361Z,156.60
2022-09-24T11:33:01.514Z,157.37
2022-09-24T11:35:46.505Z,156.80
2022-09-24T11:38:19.064Z,158.00
2022-09-24T11:41:10.218Z,157.13
2022-09-24T11:44:06.026Z,156.67
2022-09-24T11:46:49.020Z,156.87
2022-09-24T11:49:33.842Z,157.27
2022-09-24T11:52:06.436Z,156.67
2022-09-24T11:54:40.719Z,157.13
2022-09-24T11:57:16.036Z,156.87
2022-09-24T11:59:49.657Z,156.53
2022-09-24T12:02:23.646Z,156.83
2022-09-24T12:04:58.215Z,156.67
2022-09-24T12:07:33.452Z,156.77
2022-09-24T12:10:06.035Z,157.23
2022-09-24T12:12:38.404Z,158.07
2022-09-24T12:15:18.209Z,156.83
2022-09-24T12:17:50.972Z,157.30
2022-09-24T12:20:22.439Z,157.73
2022-09-24T12:22:55.806Z,156.53
2022-09-24T12:25:23.550Z,157.43
2022-09-24T12:27:51.602Z,157.33
2022-09-24T12:30:50.630Z,157.33
2022-09-24T12:33:26.004Z,156.83
2022-09-24T12:36:05.432Z,156.97
2022-09-24T12:38:37.674Z,156.50
2022-09-24T12:41:21.215Z,157.07
2022-09-24T12:43:54.687Z,157.40
2022-09-24T12:46:28.137Z,157.13
2022-09-24T12:48:56.330Z,157.53
2022-09-24T12:51:24.833Z,156.47
2022-09-24T12:53:59.950Z,157.87
2022-09-24T12:56:30.817Z,157.13
2022-09-24T12:58:59.012Z,157.00
2022-09-24T13:01:32.011Z,156.13
2022-09-24T13:04:25.890Z,156.77
2022-09-24T13:06:54.557Z,157.43
2022-09-24T13:09:38.139Z,157.17
2022-09-24T13:12:20.571Z,157.23
2022-09-24T13:14:52.728Z,156.83
2022-09-24T13:17:21.935Z,157.27
2022-09-24T13:19:51.482Z,158.13
2022-09-24T13:22:26.191Z,157.57
2022-09-24T13:25:06.593Z,157.57
2022-09-24T13:27:39.717Z,156.90
2022-09-24T13:30:17.580Z,157.03
2022-09-24T13:32:51.878Z,157.10
2022-09-24T13:35:23.603Z,157.30
2022-09-24T13:37:56.223Z,157.37
2022-09-24T13:40:28.910Z,156.60
2022-09-24T13:43:04.032Z,156.20
2022-09-24T13:45:33.412Z,157.07
2022-09-24T13:48:05.320Z,157.57
2022-09-24T13:50:37.337Z,156.93
2022-09-24T13:53:08.658Z,157.67
2022-09-24T13:55:40.564Z,156.77
2022-09-24T13:58:27.577Z,157.27
2022-09-24T14:00:56.504Z,157.60
2022-09-24T14:03:29.157Z,157.50
2022-09-24T14:05:57.771Z,157.03
2022-09-24T14:08:27.412Z,157.17
2022-09-24T14:11:09.645Z,157.30
2022-09-24T14:13:42.029Z,157.00
2022-09-24T14:16:11.988Z,157.33
2022-09-24T14:18:41.322Z,157.67
2022-09-24T14:21:12.793Z,157.53
2022-09-24T14:23:44.182Z,157.27
2022-09-24T14:26:22.574Z,157.17
2022-09-24T14:28:50.727Z,157.73
2022-09-24T14:31:18.747Z,157.30
2022-09-24T14:33:48.012Z,157.67
2022-09-24T14:36:16.821Z,157.00
2022-09-24T14:38:53.711Z,157.47
2022-09-24T14:41:24.683Z,157.23
2022-09-24T14:43:55.620Z,157.40
2022-09-24T14:46:27.649Z,157.03
2022-09-24T14:49:07.296Z,157.00
2022-09-24T14:51:36.585Z,157.47
2022-09-24T14:54:20.047Z,156.43
2022-09-24T14:56:48.051Z,156.80
2022-09-24T14:59:27.218Z,157.07
2022-09-24T15:02:04.720Z,156.90
2022-09-24T15:04:34.042Z,156.87
2022-09-24T15:07:02.212Z,157.13
2022-09-24T15:09:31.826Z,156.57
2022-09-24T15:12:08.876Z,156.80
2022-09-24T15:14:36.701Z,156.90
2022-09-24T15:17:22.466Z,156.47
2022-09-24T15:19:54.577Z,157.63
2022-09-24T15:22:23.110Z,157.33
2022-09-24T15:24:50.828Z,156.90
2022-09-24T15:27:23.300Z,156.47
2022-09-24T15:29:51.581Z,156.50
2022-09-24T15:32:20.785Z,155.93
2022-09-24T15:34:49.073Z,156.67
2022-09-24T15:37:20.553Z,156.60
2022-09-24T15:39:49.500Z,156.47
2022-09-24T15:42:17.982Z,156.80
2022-09-24T15:44:45.993Z,157.13
2022-09-24T15:47:14.502Z,157.53
2022-09-24T15:49:42.333Z,157.43
2022-09-24T15:52:15.118Z,156.50
2022-09-24T15:54:44.199Z,157.20
2022-09-24T15:57:14.296Z,156.17
2022-09-24T15:59:42.089Z,156.93
2022-09-24T16:02:22.301Z,156.40
2022-09-24T16:04:50.110Z,156.33
2022-09-24T16:07:18.226Z,157.33
2022-09-24T16:09:47.360Z,156.73
2022-09-24T16:12:16.166Z,156.87
2022-09-24T16:14:44.483Z,156.93
2022-09-24T16:17:12.850Z,156.73
2022-09-24T16:19:40.659Z,156.03
2022-09-24T16:22:08.436Z,157.00
2022-09-24T16:24:36.248Z,156.90
2022-09-24T16:27:05.498Z,157.50
2022-09-24T16:29:33.319Z,156.83
2022-09-24T16:32:02.047Z,156.40
2022-09-24T16:34:29.786Z,156.90
2022-09-24T16:36:57.660Z,156.83
2022-09-24T16:39:25.516Z,155.97
2022-09-24T16:41:54.194Z,157.23
2022-09-24T16:44:23.289Z,155.93
2022-09-24T16:46:51.149Z,156.37
2022-09-24T16:49:19.308Z,156.40
2022-09-24T16:51:47.038Z,156.07
2022-09-24T16:54:14.825Z,156.70
2022-09-24T16:56:42.772Z,156.63
2022-09-24T16:59:11.203Z,156.37
2022-09-24T17:01:42.370Z,156.40
2022-09-24T17:04:10.298Z,156.30
2022-09-24T17:06:38.316Z,156.67
2022-09-24T17:09:23.818Z,156.40
2022-09-24T17:11:52.758Z,156.27
2022-09-24T17:14:24.009Z,156.47
2022-09-24T17:16:53.140Z,156.43
2022-09-24T17:19:20.895Z,156.07
2022-09-24T17:21:50.121Z,156.67
2022-09-24T17:24:21.506Z,156.50
2022-09-24T17:26:49.882Z,155.60
2022-09-24T17:29:20.424Z,155.80
2022-09-24T17:31:48.546Z,155.97
2022-09-24T17:34:18.124Z,156.03
2022-09-24T17:36:46.107Z,154.80
2022-09-24T17:39:14.777Z,156.53
2022-09-24T17:41:42.533Z,155.77
2022-09-24T17:44:12.307Z,155.93
2022-09-24T17:46:40.471Z,156.17
2022-09-24T17:49:08.720Z,155.60
2022-09-24T17:51:38.739Z,155.53
2022-09-24T17:54:08.404Z,156.03
2022-09-24T17:56:38.711Z,155.73
2022-09-24T17:59:07.188Z,155.50
2022-09-24T18:01:37.129Z,155.87
2022-09-24T18:04:06.972Z,156.10
2022-09-24T18:06:40.001Z,155.60
2022-09-24T18:09:09.436Z,155.63
2022-09-24T18:11:40.587Z,156.30
2022-09-24T18:14:11.132Z,155.70
2022-09-24T18:16:38.917Z,155.63
2022-09-24T18:19:06.706Z,155.87
2022-09-24T18:21:34.511Z,155.83
2022-09-24T18:24:04.224Z,155.53
2022-09-24T18:26:34.912Z,155.43
2022-09-24T18:29:05.775Z,156.00
2022-09-24T18:31:34.575Z,156.13
2022-09-24T18:34:05.993Z,155.80
2022-09-24T18:36:35.218Z,156.17
2022-09-24T18:39:05.610Z,155.80
2022-09-24T18:41:34.306Z,155.27
2022-09-24T18:44:03.449Z,155.03
2022-09-24T18:46:32.427Z,155.27
2022-09-24T18:49:01.880Z,156.20
2022-09-24T18:51:31.493Z,155.27
2022-09-24T18:54:02.200Z,155.77
2022-09-24T18:56:32.033Z,155.27
2022-09-24T18:59:05.913Z,155.80
2022-09-24T19:01:36.904Z,155.33
2022-09-24T19:04:04.914Z,155.73
2022-09-24T19:06:35.743Z,155.87
2022-09-24T19:09:04.733Z,156.07
2022-09-24T19:11:34.403Z,154.60
2022-09-24T19:14:02.609Z,155.70
2022-09-24T19:16:30.989Z,155.43
2022-09-24T19:19:00.293Z,155.37
2022-09-24T19:21:28.394Z,155.27
2022-09-24T19:23:57.788Z,154.90
2022-09-24T19:26:27.698Z,155.33
2022-09-24T19:28:57.405Z,155.30
2022-09-24T19:31:27.070Z,155.53
2022-09-24T19:33:55.293Z,154.87
2022-09-24T19:36:23.305Z,155.77
2022-09-24T19:38:51.802Z,154.67
2022-09-24T19:41:24.863Z,154.13
2022-09-24T19:43:53.400Z,154.63
2022-09-24T19:46:25.251Z,155.33
2022-09-24T19:48:54.629Z,154.90
2022-09-24T19:51:24.594Z,155.00
2022-09-24T19:53:54.568Z,155.03
2022-09-24T19:56:25.304Z,154.70
2022-09-24T19:58:54.049Z,155.23
2022-09-24T20:01:24.826Z,154.73
2022-09-24T20:03:52.658Z,154.83
2022-09-24T20:06:23.494Z,155.53
2022-09-24T20:08:51.558Z,154.80
2022-09-24T20:11:21.117Z,154.83
2022-09-24T20:13:49.267Z,155.60
2022-09-24T20:16:19.605Z,155.10
2022-09-24T20:18:49.334Z,154.43
2022-09-24T20:21:18.732Z,155.10
2022-09-24T20:23:47.277Z,154.43
2022-09-24T20:26:33.556Z,154.37
2022-09-24T20:29:02.263Z,155.13
2022-09-24T20:31:30.324Z,155.03
2022-09-24T20:34:00.786Z,155.20
2022-09-24T20:36:28.953Z,154.90
2022-09-24T20:38:56.729Z,154.93
2022-09-24T20:41:25.613Z,154.57
2022-09-24T20:43:55.329Z,155.07
2022-09-24T20:46:25.004Z,155.13
2022-09-24T20:48:53.590Z,154.70
2022-09-24T20:51:23.021Z,154.90
2022-09-24T20:53:51.149Z,154.13
2022-09-24T20:56:19.282Z,155.03
2022-09-24T20:58:50.253Z,154.60
2022-09-24T21:01:18.587Z,154.77
2022-09-24T21:03:51.368Z,154.23
2022-09-24T21:06:22.564Z,154.27
2022-09-24T21:08:52.519Z,155.20
2022-09-24T21:11:22.618Z,154.87
2022-09-24T21:13:52.106Z,154.47
2022-09-24T21:16:21.482Z,154.40
2022-09-24T21:18:50.709Z,154.33
2022-09-24T21:21:20.051Z,154.47
2022-09-24T21:23:49.794Z,154.20
2022-09-24T21:26:22.637Z,154.13
2022-09-24T21:28:52.757Z,154.43
2022-09-24T21:31:21.922Z,154.73
2022-09-24T21:33:52.461Z,154.40
2022-09-24T21:36:21.494Z,154.50
2022-09-24T21:38:54.602Z,154.17
2022-09-24T21:41:24.566Z,154.13
2022-09-24T21:43:53.398Z,154.77
2022-09-24T21:46:21.344Z,154.87
2022-09-24T21:48:49.295Z,154.37
2022-09-24T21:51:21.303Z,154.53
2022-09-24T21:53:49.445Z,154.37
2022-09-24T21:56:18.714Z,154.80
2022-09-24T21:58:48.302Z,154.73
2022-09-24T22:01:18.070Z,154.63
2022-09-24T22:03:46.608Z,154.70
2022-09-24T22:06:15.294Z,154.80
2022-09-24T22:08:43.217Z,154.60
2022-09-24T22:11:12.409Z,154.60
2022-09-24T22:13:40.762Z,154.07
2022-09-24T22:16:11.948Z,154.60
2022-09-24T22:18:40.582Z,154.03
2022-09-24T22:21:09.875Z,154.30
2022-09-24T22:23:38.034Z,154.20
2022-09-24T22:26:06.566Z,154.67
2022-09-24T22:28:35.069Z,154.63
2022-09-24T22:31:07.362Z,154.47
2022-09-24T22:33:55.008Z,153.60
2022-09-24T22:36:23.654Z,153.73
2022-09-24T22:38:52.953Z,154.27
2022-09-24T22:41:21.246Z,153.63
2022-09-24T22:43:49.207Z,153.70
2022-09-24T22:46:17.693Z,154.10
2022-09-24T22:48:47.933Z,154.03
2022-09-24T22:51:15.947Z,154.20
2022-09-24T22:53:43.765Z,153.77
2022-09-24T22:56:15.511Z,154.10
2022-09-24T22:58:44.807Z,153.80
2022-09-24T23:01:16.764Z,153.87
2022-09-24T23:03:46.380Z,153.63
2022-09-24T23:06:14.252Z,154.50
2022-09-24T23:08:42.595Z,154.10
2022-09-24T23:11:12.419Z,154.23
2022-09-24T23:13:41.168Z,154.77
2022-09-24T23:16:11.611Z,153.33
2022-09-24T23:18:39.892Z,154.13
2022-09-24T23:21:10.617Z,153.40
2022-09-24T23:23:38.513Z,154.43
2022-09-24T23:26:07.773Z,154.53
2022-09-24T23:28:36.481Z,153.90
2022-09-24T23:31:05.058Z,154.23
2022-09-24T23:33:34.228Z,154.10
2022-09-24T23:36:02.622Z,154.40
2022-09-24T23:38:31.710Z,154.43
2022-09-24T23:41:00.608Z,153.93
2022-09-24T23:43:29.044Z,154.60
2022-09-24T23:45:57.266Z,154.17
2022-09-24T23:48:25.520Z,155.03
2022-09-24T23:50:53.402Z,154.00
2022-09-24T23:53:22.428Z,154.67
2022-09-24T23:55:52.278Z,154.20
2022-09-24T23:58:21.606Z,154.40
